createdAt,value
2019-05-01T00:02:08.781Z,28.93
2019-05-01T00:04:39.929Z,26.47
2019-05-01T00:07:11.137Z,25.10
2019-05-01T00:09:40.713Z,27.10
2019-05-01T00:12:09.996Z,27.17
2019-05-01T00:14:39.689Z,27.30
2019-05-01T00:17:09.211Z,24.77
2019-05-01T00:19:38.480Z,27.60
2019-05-01T00:22:08.962Z,26.60
2019-05-01T00:24:38.317Z,28.10
2019-05-01T00:27:07.893Z,27.90
2019-05-01T00:29:37.403Z,28.43
2019-05-01T00:32:06.743Z,30.30
2019-05-01T00:34:37.230Z,27.00
2019-05-01T00:37:06.497Z,26.67
2019-05-01T00:39:35.777Z,30.17
2019-05-01T00:42:05.059Z,29.93
2019-05-01T00:44:34.337Z,30.37
2019-05-01T00:47:03.841Z,27.67
2019-05-01T00:49:33.349Z,26.47
2019-05-01T00:52:02.856Z,27.23
2019-05-01T00:54:33.776Z,26.53
2019-05-01T00:57:10.410Z,29.53
2019-05-01T00:59:44.586Z,29.33
2019-05-01T01:02:15.564Z,29.53
2019-05-01T01:04:45.134Z,28.37
2019-05-01T01:07:14.418Z,28.93
2019-05-01T01:09:43.709Z,28.87
2019-05-01T01:12:13.237Z,30.83
2019-05-01T01:14:42.521Z,31.80
2019-05-01T01:17:11.809Z,31.33
2019-05-01T01:19:41.098Z,29.90
2019-05-01T01:22:10.369Z,29.93
2019-05-01T01:24:40.050Z,28.67
2019-05-01T01:27:09.469Z,27.50
2019-05-01T01:29:39.065Z,27.93
2019-05-01T01:32:08.407Z,27.77
2019-05-01T01:34:37.913Z,29.20
2019-05-01T01:37:07.205Z,26.55
2019-05-01T01:39:36.661Z,27.60
2019-05-01T01:42:07.061Z,28.05
2019-05-01T01:44:47.246Z,25.90
2019-05-01T01:47:15.917Z,27.67
2019-05-01T01:49:45.264Z,26.15
2019-05-01T01:52:15.118Z,28.05
2019-05-01T01:54:44.400Z,26.02
2019-05-01T01:57:13.920Z,26.65
2019-05-01T01:59:43.438Z,26.57
2019-05-01T02:02:17.053Z,24.70
2019-05-01T02:04:50.645Z,26.87
2019-05-01T02:07:20.065Z,26.17
2019-05-01T02:09:49.416Z,26.73
2019-05-01T02:12:19.213Z,27.82
2019-05-01T02:14:48.672Z,27.70
2019-05-01T02:17:18.181Z,28.47
2019-05-01T02:19:47.457Z,28.00
2019-05-01T02:22:16.745Z,27.65
2019-05-01T02:24:46.024Z,27.62
2019-05-01T02:27:19.869Z,29.23
2019-05-01T02:29:51.121Z,29.45
2019-05-01T02:32:23.150Z,29.05
2019-05-01T02:34:54.869Z,29.40
2019-05-01T02:37:26.590Z,32.40
2019-05-01T02:39:58.109Z,31.57
2019-05-01T02:42:30.734Z,31.45
2019-05-01T02:45:02.053Z,29.55
2019-05-01T02:47:36.178Z,31.20
2019-05-01T02:50:11.217Z,32.05
2019-05-01T02:52:43.641Z,31.55
2019-05-01T02:55:14.894Z,29.40
2019-05-01T02:57:45.149Z,31.25
2019-05-01T03:00:14.666Z,30.82
2019-05-01T03:02:43.950Z,28.67
2019-05-01T03:05:13.293Z,30.45
2019-05-01T03:07:43.343Z,30.80
2019-05-01T03:10:13.073Z,30.32
2019-05-01T03:12:44.980Z,31.35
2019-05-01T03:15:15.358Z,30.15
2019-05-01T03:18:04.657Z,29.25
2019-05-01T03:20:51.878Z,31.68
2019-05-01T03:23:28.821Z,29.72
2019-05-01T03:25:58.165Z,31.50
2019-05-01T03:28:27.752Z,35.90
2019-05-01T03:30:57.326Z,33.40
2019-05-01T03:33:26.686Z,32.50
2019-05-01T03:35:56.256Z,31.85
2019-05-01T03:38:26.357Z,34.75
2019-05-01T03:40:56.366Z,34.18
2019-05-01T03:43:26.413Z,34.83
2019-05-01T03:45:56.274Z,32.42
2019-05-01T03:48:26.162Z,34.53
2019-05-01T03:50:55.617Z,34.98
2019-05-01T03:53:26.400Z,33.35
2019-05-01T03:55:55.955Z,31.60
2019-05-01T03:58:26.965Z,31.65
2019-05-01T04:01:03.619Z,31.65
2019-05-01T04:03:40.134Z,31.97
2019-05-01T04:06:09.650Z,32.23
2019-05-01T04:08:38.997Z,35.98
2019-05-01T04:11:08.281Z,34.60
2019-05-01T04:13:37.855Z,35.73
2019-05-01T04:16:07.213Z,32.15
2019-05-01T04:18:36.725Z,32.33
2019-05-01T04:21:08.693Z,34.18
2019-05-01T04:23:38.703Z,34.98
2019-05-01T04:26:08.466Z,32.60
2019-05-01T04:28:42.686Z,33.48
2019-05-01T04:31:28.911Z,33.10
2019-05-01T04:34:03.235Z,37.48
2019-05-01T04:36:35.589Z,33.90
2019-05-01T04:39:07.113Z,35.10
2019-05-01T04:41:36.536Z,36.80
2019-05-01T04:44:06.323Z,38.28
2019-05-01T04:46:35.748Z,39.45
2019-05-01T04:49:05.310Z,37.35
2019-05-01T04:51:35.529Z,37.35
2019-05-01T04:54:05.275Z,36.88
2019-05-01T04:56:34.556Z,35.65
2019-05-01T04:59:05.072Z,33.33
2019-05-01T05:01:57.006Z,32.17
2019-05-01T05:04:25.604Z,33.13
2019-05-01T05:06:55.700Z,37.38
2019-05-01T05:09:45.441Z,37.98
2019-05-01T05:12:23.553Z,37.40
2019-05-01T05:15:10.875Z,37.03
2019-05-01T05:17:40.429Z,40.03
2019-05-01T05:20:09.950Z,44.53
2019-05-01T05:22:39.410Z,43.50
2019-05-01T05:25:09.057Z,41.80
2019-05-01T05:27:39.945Z,45.35
2019-05-01T05:30:09.367Z,46.65
2019-05-01T05:32:41.057Z,47.93
2019-05-01T05:35:12.673Z,43.17
2019-05-01T05:37:53.871Z,40.88
2019-05-01T05:40:25.095Z,39.78
2019-05-01T05:42:54.444Z,38.60
2019-05-01T05:45:23.861Z,38.95
2019-05-01T05:47:53.289Z,37.63
2019-05-01T05:50:24.602Z,34.30
2019-05-01T05:52:57.689Z,35.33
2019-05-01T05:55:45.783Z,36.83
2019-05-01T05:58:32.382Z,35.28
2019-05-01T06:01:20.285Z,35.90
2019-05-01T06:03:56.337Z,35.10
2019-05-01T06:06:35.526Z,34.33
2019-05-01T06:09:08.937Z,35.70
2019-05-01T06:11:44.553Z,33.67
2019-05-01T06:14:32.705Z,34.33
2019-05-01T06:17:03.787Z,34.13
2019-05-01T06:19:34.701Z,36.03
2019-05-01T06:22:10.314Z,34.10
2019-05-01T06:24:48.177Z,34.38
2019-05-01T06:27:17.700Z,32.40
2019-05-01T06:29:47.524Z,34.40
2019-05-01T06:32:16.885Z,34.67
2019-05-01T06:34:46.851Z,35.43
2019-05-01T06:37:16.133Z,32.67
2019-05-01T06:39:48.050Z,33.23
2019-05-01T06:42:17.666Z,34.80
2019-05-01T06:44:55.170Z,35.27
2019-05-01T06:47:26.128Z,33.47
2019-05-01T06:50:14.837Z,33.10
2019-05-01T06:52:44.345Z,33.33
2019-05-01T06:55:14.021Z,32.70
2019-05-01T06:57:44.027Z,35.80
2019-05-01T07:00:16.081Z,36.40
2019-05-01T07:02:47.462Z,36.17
2019-05-01T07:05:16.885Z,36.03
2019-05-01T07:07:48.143Z,38.97
2019-05-01T07:10:29.700Z,36.10
2019-05-01T07:12:48.717Z,35.90
2019-05-01T07:15:21.855Z,35.40
2019-05-01T07:17:49.770Z,35.20
2019-05-01T07:20:20.686Z,35.63
2019-05-01T07:22:50.161Z,37.60
2019-05-01T07:25:19.754Z,37.63
2019-05-01T07:27:49.028Z,37.37
2019-05-01T07:30:21.113Z,38.07
2019-05-01T07:32:50.528Z,38.97
2019-05-01T07:35:19.949Z,40.23
2019-05-01T07:37:49.525Z,38.43
2019-05-01T07:40:20.739Z,38.50
2019-05-01T07:42:52.625Z,43.60
2019-05-01T07:45:29.609Z,42.03
2019-05-01T07:48:01.020Z,43.20
2019-05-01T07:50:32.623Z,46.50
2019-05-01T07:53:02.143Z,48.07
2019-05-01T07:55:37.446Z,47.50
2019-05-01T07:58:15.816Z,47.70
2019-05-01T08:00:53.675Z,52.27
2019-05-01T08:03:23.223Z,52.83
2019-05-01T08:05:52.741Z,55.73
2019-05-01T08:08:22.018Z,58.57
2019-05-01T08:10:51.531Z,56.70
2019-05-01T08:13:21.045Z,55.00
2019-05-01T08:15:50.325Z,57.93
2019-05-01T08:18:24.216Z,54.70
2019-05-01T08:21:12.505Z,56.93
2019-05-01T08:23:42.585Z,58.63
2019-05-01T08:26:12.992Z,57.13
2019-05-01T08:28:49.694Z,57.83
2019-05-01T08:31:36.674Z,57.00
2019-05-01T08:34:25.318Z,56.30
2019-05-01T08:36:54.560Z,55.83
2019-05-01T08:39:23.845Z,49.20
2019-05-01T08:41:53.133Z,52.87
2019-05-01T08:44:24.805Z,55.60
2019-05-01T08:47:02.390Z,53.50
2019-05-01T08:49:49.272Z,52.40
2019-05-01T08:52:14.037Z,53.37
2019-05-01T08:54:43.365Z,52.20
2019-05-01T08:57:12.629Z,50.50
2019-05-01T08:59:42.152Z,51.10
2019-05-01T09:02:11.429Z,50.73
2019-05-01T09:04:40.721Z,50.63
2019-05-01T09:07:10.002Z,52.63
2019-05-01T09:09:44.854Z,55.70
2019-05-01T09:12:11.753Z,54.10
2019-05-01T09:14:41.945Z,54.20
2019-05-01T09:17:11.224Z,58.73
2019-05-01T09:19:40.751Z,55.70
2019-05-01T09:22:10.360Z,59.27
2019-05-01T09:24:39.653Z,55.93
2019-05-01T09:27:29.503Z,56.07
2019-05-01T09:29:58.472Z,59.00
2019-05-01T09:32:27.752Z,55.30
2019-05-01T09:34:58.419Z,56.50
2019-05-01T09:37:27.741Z,57.90
2019-05-01T09:39:57.101Z,57.20
2019-05-01T09:42:26.389Z,55.27
2019-05-01T09:44:55.683Z,58.80
2019-05-01T09:47:26.773Z,58.10
2019-05-01T09:49:56.108Z,57.00
2019-05-01T09:52:27.060Z,57.87
2019-05-01T09:54:58.008Z,58.23
2019-05-01T09:57:27.516Z,56.70
2019-05-01T09:59:56.812Z,54.40
2019-05-01T10:02:26.181Z,54.70
2019-05-01T10:04:55.466Z,52.87
2019-05-01T10:07:28.955Z,52.50
2019-05-01T10:09:55.733Z,53.57
2019-05-01T10:12:25.017Z,55.13
2019-05-01T10:14:54.301Z,53.20
2019-05-01T10:17:23.652Z,57.17
2019-05-01T10:19:52.941Z,34.87
2019-05-01T10:22:22.450Z,52.13
2019-05-01T10:24:52.701Z,54.80
2019-05-01T10:27:23.633Z,54.40
2019-05-01T10:30:10.814Z,57.57
2019-05-01T10:32:44.672Z,56.73
2019-05-01T10:35:24.272Z,56.60
2019-05-01T10:37:53.559Z,58.93
2019-05-01T10:40:27.109Z,58.80
2019-05-01T10:42:53.833Z,58.33
2019-05-01T10:45:23.129Z,59.90
2019-05-01T10:47:52.402Z,58.50
2019-05-01T10:50:21.794Z,57.80
2019-05-01T10:52:51.073Z,54.93
2019-05-01T10:55:20.578Z,53.47
2019-05-01T10:57:49.933Z,56.13
2019-05-01T11:00:20.021Z,54.80
2019-05-01T11:02:49.382Z,57.00
2019-05-01T11:05:18.658Z,55.67
2019-05-01T11:07:48.240Z,55.13
2019-05-01T11:10:17.580Z,55.50
2019-05-01T11:12:47.089Z,54.53
2019-05-01T11:15:16.509Z,52.37
2019-05-01T11:17:45.785Z,51.33
2019-05-01T11:20:15.104Z,53.50
2019-05-01T11:22:45.690Z,51.47
2019-05-01T11:25:16.965Z,49.23
2019-05-01T11:27:46.249Z,53.80
2019-05-01T11:30:16.073Z,54.47
2019-05-01T11:32:46.989Z,50.30
2019-05-01T11:35:17.969Z,51.93
2019-05-01T11:37:48.958Z,52.87
2019-05-01T11:40:20.014Z,51.10
2019-05-01T11:42:49.293Z,50.23
2019-05-01T11:45:19.304Z,49.97
2019-05-01T11:47:48.588Z,50.13
2019-05-01T11:50:17.911Z,50.90
2019-05-01T11:52:47.465Z,51.90
2019-05-01T11:55:16.737Z,51.20
2019-05-01T11:57:46.321Z,50.33
2019-05-01T12:00:17.810Z,49.33
2019-05-01T12:02:47.389Z,47.63
2019-05-01T12:05:16.667Z,49.37
2019-05-01T12:07:46.070Z,51.53
2019-05-01T12:10:16.110Z,49.93
2019-05-01T12:12:45.621Z,52.17
2019-05-01T12:15:17.615Z,53.10
2019-05-01T12:17:48.533Z,50.13
2019-05-01T12:20:18.520Z,51.37
2019-05-01T12:22:51.075Z,54.80
2019-05-01T12:25:18.841Z,54.93
2019-05-01T12:27:48.116Z,55.50
2019-05-01T12:30:19.449Z,52.67
2019-05-01T12:32:48.970Z,54.63
2019-05-01T12:35:18.258Z,55.20
2019-05-01T12:37:47.533Z,53.90
2019-05-01T12:40:17.587Z,50.27
2019-05-01T12:42:46.930Z,52.80
2019-05-01T12:45:17.015Z,50.50
2019-05-01T12:47:54.009Z,48.47
2019-05-01T12:50:23.429Z,51.50
2019-05-01T12:52:59.768Z,51.13
2019-05-01T12:55:30.713Z,50.20
2019-05-01T12:57:59.989Z,51.63
2019-05-01T13:00:40.884Z,49.60
2019-05-01T13:03:10.697Z,48.40
2019-05-01T13:05:39.977Z,50.97
2019-05-01T13:08:09.251Z,52.13
2019-05-01T13:10:39.601Z,51.93
2019-05-01T13:13:11.155Z,50.10
2019-05-01T13:15:39.861Z,50.23
2019-05-01T13:18:09.141Z,51.53
2019-05-01T13:20:38.437Z,51.10
2019-05-01T13:23:07.715Z,48.67
2019-05-01T13:25:36.993Z,51.83
2019-05-01T13:28:13.758Z,50.10
2019-05-01T13:30:44.910Z,52.40
2019-05-01T13:33:14.269Z,51.60
2019-05-01T13:35:43.537Z,51.50
2019-05-01T13:38:12.890Z,49.70
2019-05-01T13:40:43.709Z,48.83
2019-05-01T13:43:12.992Z,52.93
2019-05-01T13:45:42.269Z,48.13
2019-05-01T13:48:11.833Z,49.70
2019-05-01T13:50:41.109Z,51.77
2019-05-01T13:53:10.385Z,50.63
2019-05-01T13:55:39.728Z,48.80
2019-05-01T13:58:09.349Z,48.60
2019-05-01T14:00:38.621Z,49.30
2019-05-01T14:03:08.149Z,54.50
2019-05-01T14:05:37.429Z,52.70
2019-05-01T14:08:07.160Z,53.00
2019-05-01T14:10:36.445Z,54.57
2019-05-01T14:13:05.724Z,56.27
2019-05-01T14:15:35.001Z,53.50
2019-05-01T14:18:04.585Z,54.07
2019-05-01T14:20:44.049Z,55.60
2019-05-01T14:23:17.621Z,52.77
2019-05-01T14:26:06.170Z,51.57
2019-05-01T14:28:35.993Z,55.47
2019-05-01T14:31:06.477Z,55.87
2019-05-01T14:33:36.034Z,53.67
2019-05-01T14:36:06.437Z,52.80
2019-05-01T14:38:35.926Z,49.40
2019-05-01T14:41:05.337Z,55.37
2019-05-01T14:43:35.593Z,55.07
2019-05-01T14:46:05.041Z,58.13
2019-05-01T14:48:34.330Z,53.40
2019-05-01T14:51:04.109Z,55.40
2019-05-01T14:53:33.405Z,51.30
2019-05-01T14:56:02.929Z,52.67
2019-05-01T14:58:32.222Z,51.07
2019-05-01T15:01:01.735Z,51.67
2019-05-01T15:03:31.252Z,52.50
2019-05-01T15:06:00.533Z,53.87
2019-05-01T15:08:30.054Z,53.00
2019-05-01T15:10:59.336Z,53.47
2019-05-01T15:13:46.594Z,55.00
2019-05-01T15:16:29.605Z,55.13
2019-05-01T15:19:03.161Z,53.80
2019-05-01T15:21:32.441Z,53.50
2019-05-01T15:24:01.733Z,53.93
2019-05-01T15:26:31.004Z,52.03
2019-05-01T15:29:00.406Z,54.57
2019-05-01T15:31:29.753Z,49.47
2019-05-01T15:33:59.257Z,53.00
2019-05-01T15:36:28.545Z,58.07
2019-05-01T15:38:58.529Z,52.80
2019-05-01T15:41:32.134Z,53.77
2019-05-01T15:44:06.075Z,53.53
2019-05-01T15:46:37.233Z,50.17
2019-05-01T15:49:06.513Z,52.07
2019-05-01T15:51:35.797Z,53.30
2019-05-01T15:54:05.306Z,55.87
2019-05-01T15:56:34.590Z,48.63
2019-05-01T15:59:03.939Z,51.43
2019-05-01T16:01:33.226Z,50.30
2019-05-01T16:04:02.501Z,51.00
2019-05-01T16:06:31.792Z,51.30
2019-05-01T16:09:01.457Z,52.27
2019-05-01T16:11:37.045Z,52.57
2019-05-01T16:14:06.396Z,52.97
2019-05-01T16:16:35.686Z,49.73
2019-05-01T16:19:04.970Z,52.30
2019-05-01T16:21:34.521Z,50.10
2019-05-01T16:24:04.069Z,46.93
2019-05-01T16:26:33.644Z,48.80
2019-05-01T16:29:03.141Z,46.00
2019-05-01T16:31:32.433Z,42.27
2019-05-01T16:34:01.710Z,45.93
2019-05-01T16:36:30.989Z,48.57
2019-05-01T16:39:07.626Z,44.30
2019-05-01T16:41:37.222Z,46.50
2019-05-01T16:44:06.830Z,46.10
2019-05-01T16:46:36.121Z,46.63
2019-05-01T16:49:06.050Z,48.87
2019-05-01T16:51:37.143Z,47.90
2019-05-01T16:54:07.749Z,49.57
2019-05-01T16:56:37.333Z,51.40
2019-05-01T16:59:06.940Z,52.47
2019-05-01T17:01:55.944Z,52.40
2019-05-01T17:04:32.625Z,52.03
2019-05-01T17:07:03.924Z,52.80
2019-05-01T17:09:34.858Z,51.40
2019-05-01T17:12:04.901Z,55.10
2019-05-01T17:14:34.675Z,53.37
2019-05-01T17:17:05.963Z,54.13
2019-05-01T17:19:35.556Z,52.60
2019-05-01T17:22:09.357Z,50.50
2019-05-01T17:24:36.418Z,51.60
2019-05-01T17:27:05.773Z,47.97
2019-05-01T17:29:35.166Z,48.23
2019-05-01T17:32:05.526Z,50.00
2019-05-01T17:34:34.859Z,45.90
2019-05-01T17:37:04.237Z,46.00
2019-05-01T17:39:33.517Z,44.67
2019-05-01T17:42:03.936Z,42.97
2019-05-01T17:44:33.358Z,45.70
2019-05-01T17:47:02.730Z,43.87
2019-05-01T17:49:32.541Z,42.73
2019-05-01T17:52:01.921Z,35.40
2019-05-01T17:54:31.446Z,41.60
2019-05-01T17:57:00.886Z,45.33
2019-05-01T17:59:30.181Z,44.80
2019-05-01T18:02:05.349Z,44.33
2019-05-01T18:04:37.342Z,47.27
2019-05-01T18:07:06.800Z,45.10
2019-05-01T18:09:36.443Z,42.53
2019-05-01T18:12:06.030Z,44.93
2019-05-01T18:14:35.309Z,45.53
2019-05-01T18:17:05.599Z,42.70
2019-05-01T18:19:34.893Z,46.30
2019-05-01T18:22:12.137Z,42.57
2019-05-01T18:24:43.078Z,44.70
2019-05-01T18:27:30.764Z,44.80
2019-05-01T18:30:01.710Z,44.20
2019-05-01T18:32:47.261Z,42.60
2019-05-01T18:35:14.374Z,43.87
2019-05-01T18:37:49.022Z,40.60
2019-05-01T18:40:25.713Z,41.73
2019-05-01T18:42:55.157Z,42.73
2019-05-01T18:45:49.810Z,42.77
2019-05-01T18:48:20.225Z,42.57
2019-05-01T18:50:55.008Z,43.07
2019-05-01T18:53:21.181Z,43.80
2019-05-01T18:55:50.470Z,42.40
2019-05-01T18:58:20.085Z,43.60
2019-05-01T19:00:49.777Z,43.50
2019-05-01T19:03:19.060Z,40.23
2019-05-01T19:05:48.430Z,42.87
2019-05-01T19:08:18.089Z,42.77
2019-05-01T19:10:47.437Z,41.70
2019-05-01T19:13:17.449Z,41.90
2019-05-01T19:15:46.766Z,41.73
2019-05-01T19:18:16.129Z,41.30
2019-05-01T19:20:58.621Z,43.30
2019-05-01T19:23:16.534Z,42.30
2019-05-01T19:25:47.381Z,41.90
2019-05-01T19:28:17.213Z,41.60
2019-05-01T19:30:46.817Z,42.60
2019-05-01T19:33:16.272Z,42.20
2019-05-01T19:35:46.029Z,41.57
2019-05-01T19:38:15.899Z,42.87
2019-05-01T19:40:45.348Z,41.50
2019-05-01T19:43:14.673Z,44.10
2019-05-01T19:45:43.988Z,44.70
2019-05-01T19:48:14.517Z,45.00
2019-05-01T19:50:47.919Z,44.90
2019-05-01T19:53:15.905Z,45.33
2019-05-01T19:55:46.744Z,45.13
2019-05-01T19:58:17.088Z,44.73
2019-05-01T20:00:52.869Z,47.00
2019-05-01T20:03:22.492Z,45.27
2019-05-01T20:05:51.822Z,43.20
2019-05-01T20:08:22.514Z,42.87
2019-05-01T20:10:51.789Z,43.50
2019-05-01T20:13:21.108Z,44.57
2019-05-01T20:15:50.721Z,43.27
2019-05-01T20:18:20.081Z,42.20
2019-05-01T20:20:49.429Z,41.50
2019-05-01T20:23:19.789Z,41.87
2019-05-01T20:25:51.091Z,42.37
2019-05-01T20:28:22.262Z,44.60
2019-05-01T20:30:51.156Z,42.60
2019-05-01T20:33:20.858Z,43.00
2019-05-01T20:35:50.474Z,41.47
2019-05-01T20:38:20.062Z,40.40
2019-05-01T20:40:49.341Z,40.80
2019-05-01T20:43:18.640Z,40.90
2019-05-01T20:45:49.358Z,44.03
2019-05-01T20:48:23.743Z,43.33
2019-05-01T20:50:49.905Z,42.93
2019-05-01T20:53:19.192Z,44.80
2019-05-01T20:55:50.123Z,46.00
2019-05-01T20:58:21.041Z,44.07
2019-05-01T21:00:53.396Z,44.27
2019-05-01T21:03:22.949Z,46.50
2019-05-01T21:05:56.650Z,45.10
2019-05-01T21:08:44.057Z,44.80
2019-05-01T21:11:15.052Z,44.50
2019-05-01T21:13:44.577Z,47.07
2019-05-01T21:16:14.187Z,45.17
2019-05-01T21:18:43.825Z,46.73
2019-05-01T21:21:14.172Z,45.97
2019-05-01T21:23:48.225Z,44.70
2019-05-01T21:26:15.049Z,46.77
2019-05-01T21:28:44.999Z,45.43
2019-05-01T21:31:14.598Z,43.90
2019-05-01T21:33:46.333Z,44.00
2019-05-01T21:36:16.165Z,46.23
2019-05-01T21:38:45.450Z,45.53
2019-05-01T21:41:15.057Z,49.07
2019-05-01T21:43:45.718Z,47.07
2019-05-01T21:46:15.008Z,46.03
2019-05-01T21:48:44.359Z,46.67
2019-05-01T21:51:14.065Z,45.30
2019-05-01T21:53:46.404Z,47.23
2019-05-01T21:56:14.325Z,48.17
2019-05-01T21:58:45.247Z,49.83
2019-05-01T22:01:15.018Z,47.83
2019-05-01T22:03:44.625Z,47.53
2019-05-01T22:06:15.387Z,49.00
2019-05-01T22:08:46.517Z,52.07
2019-05-01T22:11:15.795Z,49.67
2019-05-01T22:13:45.073Z,48.97
2019-05-01T22:16:18.464Z,47.57
2019-05-01T22:18:51.689Z,46.70
2019-05-01T22:21:35.021Z,50.77
2019-05-01T22:24:18.619Z,47.03
2019-05-01T22:27:07.766Z,49.37
2019-05-01T22:29:51.486Z,49.40
2019-05-01T22:32:27.682Z,51.47
2019-05-01T22:34:58.061Z,50.73
2019-05-01T22:37:27.349Z,54.67
2019-05-01T22:40:03.945Z,49.63
2019-05-01T22:42:33.233Z,50.40
2019-05-01T22:45:02.569Z,57.27
2019-05-01T22:47:31.925Z,60.57
2019-05-01T22:50:01.276Z,59.30
2019-05-01T22:52:30.596Z,63.97
2019-05-01T22:54:59.880Z,62.40
2019-05-01T22:57:29.173Z,59.37
2019-05-01T22:59:58.749Z,59.37
2019-05-01T23:02:29.668Z,55.67
2019-05-01T23:04:59.324Z,55.20
2019-05-01T23:07:28.588Z,55.03
2019-05-01T23:10:02.880Z,53.97
2019-05-01T23:12:29.173Z,55.30
2019-05-01T23:14:58.628Z,56.17
2019-05-01T23:17:39.488Z,55.60
2019-05-01T23:20:10.385Z,53.83
2019-05-01T23:22:39.666Z,52.30
2019-05-01T23:25:09.292Z,53.98
2019-05-01T23:27:38.572Z,54.33
2019-05-01T23:30:10.118Z,54.67
2019-05-01T23:32:39.394Z,53.13
2019-05-01T23:35:09.025Z,53.20
2019-05-01T23:37:38.305Z,55.33
2019-05-01T23:40:10.949Z,53.83
2019-05-01T23:42:43.856Z,52.47
2019-05-01T23:45:11.025Z,56.20
2019-05-01T23:47:40.301Z,51.07
2019-05-01T23:50:10.032Z,51.07
2019-05-01T23:52:39.864Z,53.05
2019-05-01T23:55:09.854Z,54.83
2019-05-01T23:57:39.393Z,53.00
